sensor_id;sensor_type;location;lat;lon;timestamp;pressure;altitude;pressure_sealevel;temperature
34807;BMP280;18310;55.586;12.286;2023-12-22T00:01:46;97344.81;;;8.85
34807;BMP280;18310;55.586;12.286;2023-12-22T00:05:13;97341.16;;;8.92
34807;BMP280;18310;55.586;12.286;2023-12-22T00:08:16;97354.72;;;8.92
34807;BMP280;18310;55.586;12.286;2023-12-22T00:11:19;97374.06;;;8.94
34807;BMP280;18310;55.586;12.286;2023-12-22T00:14:23;97364.34;;;8.96
34807;BMP280;18310;55.586;12.286;2023-12-22T00:17:31;97369.03;;;8.92
34807;BMP280;18310;55.586;12.286;2023-12-22T00:20:35;97410.06;;;8.94
34807;BMP280;18310;55.586;12.286;2023-12-22T00:23:39;97375.59;;;8.95
34807;BMP280;18310;55.586;12.286;2023-12-22T00:26:42;97383.31;;;8.96
34807;BMP280;18310;55.586;12.286;2023-12-22T00:29:46;97392.69;;;8.92
34807;BMP280;18310;55.586;12.286;2023-12-22T00:32:49;97399.28;;;8.91
34807;BMP280;18310;55.586;12.286;2023-12-22T00:35:54;97393.03;;;8.94
34807;BMP280;18310;55.586;12.286;2023-12-22T00:38:57;97388.03;;;8.92
34807;BMP280;18310;55.586;12.286;2023-12-22T00:42:00;97399.63;;;8.93
34807;BMP280;18310;55.586;12.286;2023-12-22T00:45:06;97443.41;;;8.91
34807;BMP280;18310;55.586;12.286;2023-12-22T00:48:09;97417.44;;;8.94
34807;BMP280;18310;55.586;12.286;2023-12-22T00:51:15;97406.88;;;8.99
34807;BMP280;18310;55.586;12.286;2023-12-22T00:54:19;97431.75;;;8.94
34807;BMP280;18310;55.586;12.286;2023-12-22T00:57:22;97417.44;;;8.94
34807;BMP280;18310;55.586;12.286;2023-12-22T01:00:26;97382.25;;;8.90
34807;BMP280;18310;55.586;12.286;2023-12-22T01:03:29;97436.63;;;9.03
34807;BMP280;18310;55.586;12.286;2023-12-22T01:06:38;97463.31;;;9.04
34807;BMP280;18310;55.586;12.286;2023-12-22T01:09:42;97470.59;;;8.88
34807;BMP280;18310;55.586;12.286;2023-12-22T01:12:45;97476.97;;;8.78
34807;BMP280;18310;55.586;12.286;2023-12-22T01:15:49;97471.50;;;8.81
34807;BMP280;18310;55.586;12.286;2023-12-22T01:18:53;97474.78;;;8.92
34807;BMP280;18310;55.586;12.286;2023-12-22T01:21:58;97474.38;;;8.94
34807;BMP280;18310;55.586;12.286;2023-12-22T01:25:02;97481.03;;;8.89
34807;BMP280;18310;55.586;12.286;2023-12-22T01:28:05;97475.19;;;8.91
34807;BMP280;18310;55.586;12.286;2023-12-22T01:31:08;97493.06;;;8.88
34807;BMP280;18310;55.586;12.286;2023-12-22T01:34:11;97507.88;;;9.03
34807;BMP280;18310;55.586;12.286;2023-12-22T01:37:16;97509.25;;;8.92
34807;BMP280;18310;55.586;12.286;2023-12-22T01:40:20;97504.19;;;8.94
34807;BMP280;18310;55.586;12.286;2023-12-22T01:43:23;97483.63;;;8.96
34807;BMP280;18310;55.586;12.286;2023-12-22T01:46:27;97490.16;;;8.99
34807;BMP280;18310;55.586;12.286;2023-12-22T01:49:30;97501.34;;;9.01
34807;BMP280;18310;55.586;12.286;2023-12-22T01:52:36;97506.66;;;9.08
34807;BMP280;18310;55.586;12.286;2023-12-22T01:55:40;97510.56;;;9.07
34807;BMP280;18310;55.586;12.286;2023-12-22T01:58:43;97518.09;;;8.96
34807;BMP280;18310;55.586;12.286;2023-12-22T02:01:47;97527.38;;;8.98
34807;BMP280;18310;55.586;12.286;2023-12-22T02:04:51;97518.50;;;8.94
34807;BMP280;18310;55.586;12.286;2023-12-22T02:07:56;97497.31;;;8.89
34807;BMP280;18310;55.586;12.286;2023-12-22T02:10:59;97510.53;;;8.87
34807;BMP280;18310;55.586;12.286;2023-12-22T02:14:03;97534.41;;;8.92
34807;BMP280;18310;55.586;12.286;2023-12-22T02:17:41;97518.66;;;8.87
34807;BMP280;18310;55.586;12.286;2023-12-22T02:20:47;97527.41;;;8.72
34807;BMP280;18310;55.586;12.286;2023-12-22T02:23:52;97530.97;;;8.69
34807;BMP280;18310;55.586;12.286;2023-12-22T02:26:56;97520.44;;;8.74
34807;BMP280;18310;55.586;12.286;2023-12-22T02:30:07;97539.41;;;8.74
34807;BMP280;18310;55.586;12.286;2023-12-22T02:33:13;97527.59;;;8.84
34807;BMP280;18310;55.586;12.286;2023-12-22T02:36:19;97545.22;;;8.73
34807;BMP280;18310;55.586;12.286;2023-12-22T02:39:25;97548.00;;;8.69
34807;BMP280;18310;55.586;12.286;2023-12-22T02:42:35;97547.81;;;8.80
34807;BMP280;18310;55.586;12.286;2023-12-22T02:45:39;97524.94;;;8.81
34807;BMP280;18310;55.586;12.286;2023-12-22T02:48:42;97522.66;;;8.79
34807;BMP280;18310;55.586;12.286;2023-12-22T02:51:46;97533.13;;;8.77
34807;BMP280;18310;55.586;12.286;2023-12-22T02:54:51;97508.66;;;8.81
34807;BMP280;18310;55.586;12.286;2023-12-22T02:57:54;97525.38;;;8.79
34807;BMP280;18310;55.586;12.286;2023-12-22T03:00:57;97534.00;;;8.94
34807;BMP280;18310;55.586;12.286;2023-12-22T03:04:00;97531.50;;;8.83
34807;BMP280;18310;55.586;12.286;2023-12-22T03:07:04;97545.59;;;8.75
34807;BMP280;18310;55.586;12.286;2023-12-22T03:10:08;97528.56;;;8.74
34807;BMP280;18310;55.586;12.286;2023-12-22T03:13:12;97546.00;;;8.73
34807;BMP280;18310;55.586;12.286;2023-12-22T03:16:15;97544.28;;;8.59
34807;BMP280;18310;55.586;12.286;2023-12-22T03:19:18;97523.88;;;8.51
34807;BMP280;18310;55.586;12.286;2023-12-22T03:22:22;97540.75;;;8.62
34807;BMP280;18310;55.586;12.286;2023-12-22T03:25:27;97528.44;;;8.58
34807;BMP280;18310;55.586;12.286;2023-12-22T03:28:30;97533.50;;;8.56
34807;BMP280;18310;55.586;12.286;2023-12-22T03:31:35;97524.88;;;8.61
34807;BMP280;18310;55.586;12.286;2023-12-22T03:34:39;97548.28;;;8.51
34807;BMP280;18310;55.586;12.286;2023-12-22T03:37:43;97544.06;;;8.50
34807;BMP280;18310;55.586;12.286;2023-12-22T03:40:48;97529.38;;;8.48
34807;BMP280;18310;55.586;12.286;2023-12-22T03:43:51;97527.69;;;8.54
34807;BMP280;18310;55.586;12.286;2023-12-22T03:46:55;97530.19;;;8.68
34807;BMP280;18310;55.586;12.286;2023-12-22T03:49:59;97518.41;;;8.55
34807;BMP280;18310;55.586;12.286;2023-12-22T03:53:02;97525.16;;;8.70
34807;BMP280;18310;55.586;12.286;2023-12-22T03:56:08;97539.13;;;8.65
34807;BMP280;18310;55.586;12.286;2023-12-22T03:59:11;97529.50;;;8.64
34807;BMP280;18310;55.586;12.286;2023-12-22T04:02:15;97528.81;;;8.60
34807;BMP280;18310;55.586;12.286;2023-12-22T04:05:18;97514.47;;;8.59
34807;BMP280;18310;55.586;12.286;2023-12-22T04:08:22;97527.69;;;8.54
34807;BMP280;18310;55.586;12.286;2023-12-22T04:11:27;97535.03;;;8.57
34807;BMP280;18310;55.586;12.286;2023-12-22T04:14:30;97535.66;;;8.64
34807;BMP280;18310;55.586;12.286;2023-12-22T04:17:33;97539.97;;;8.62
34807;BMP280;18310;55.586;12.286;2023-12-22T04:21:02;97551.59;;;8.62
34807;BMP280;18310;55.586;12.286;2023-12-22T04:24:06;97543.75;;;8.68
34807;BMP280;18310;55.586;12.286;2023-12-22T04:27:09;97552.66;;;8.69
34807;BMP280;18310;55.586;12.286;2023-12-22T04:30:13;97547.47;;;8.78
34807;BMP280;18310;55.586;12.286;2023-12-22T04:33:17;97513.75;;;8.79
34807;BMP280;18310;55.586;12.286;2023-12-22T04:36:22;97542.03;;;8.78
34807;BMP280;18310;55.586;12.286;2023-12-22T04:39:25;97542.44;;;8.76
34807;BMP280;18310;55.586;12.286;2023-12-22T04:42:29;97562.03;;;8.87
34807;BMP280;18310;55.586;12.286;2023-12-22T04:45:32;97540.78;;;8.82
34807;BMP280;18310;55.586;12.286;2023-12-22T04:48:36;97550.28;;;8.94
34807;BMP280;18310;55.586;12.286;2023-12-22T04:51:41;97570.03;;;8.94
34807;BMP280;18310;55.586;12.286;2023-12-22T04:54:44;97573.91;;;8.93
34807;BMP280;18310;55.586;12.286;2023-12-22T04:57:48;97550.31;;;8.90
34807;BMP280;18310;55.586;12.286;2023-12-22T05:00:51;97539.44;;;8.94
34807;BMP280;18310;55.586;12.286;2023-12-22T05:03:54;97525.06;;;8.97
34807;BMP280;18310;55.586;12.286;2023-12-22T05:06:59;97553.22;;;9.03
34807;BMP280;18310;55.586;12.286;2023-12-22T05:10:03;97561.84;;;8.98
34807;BMP280;18310;55.586;12.286;2023-12-22T05:13:06;97564.59;;;8.94
34807;BMP280;18310;55.586;12.286;2023-12-22T05:16:09;97558.06;;;8.92
34807;BMP280;18310;55.586;12.286;2023-12-22T05:19:13;97555.94;;;9.03
34807;BMP280;18310;55.586;12.286;2023-12-22T05:22:18;97567.19;;;9.01
34807;BMP280;18310;55.586;12.286;2023-12-22T05:25:23;97570.00;;;8.98
34807;BMP280;18310;55.586;12.286;2023-12-22T05:28:26;97574.13;;;9.02
34807;BMP280;18310;55.586;12.286;2023-12-22T05:31:29;97580.72;;;9.01
34807;BMP280;18310;55.586;12.286;2023-12-22T05:34:34;97585.16;;;8.92
34807;BMP280;18310;55.586;12.286;2023-12-22T05:37:40;97586.66;;;8.96
34807;BMP280;18310;55.586;12.286;2023-12-22T05:40:43;97600.66;;;8.91
34807;BMP280;18310;55.586;12.286;2023-12-22T05:43:47;97613.03;;;8.92
34807;BMP280;18310;55.586;12.286;2023-12-22T05:47:10;97594.03;;;8.96
34807;BMP280;18310;55.586;12.286;2023-12-22T05:50:15;97638.81;;;9.04
34807;BMP280;18310;55.586;12.286;2023-12-22T05:53:19;97624.66;;;8.93
34807;BMP280;18310;55.586;12.286;2023-12-22T05:56:22;97634.38;;;9.14
34807;BMP280;18310;55.586;12.286;2023-12-22T05:59:25;97645.91;;;9.21
34807;BMP280;18310;55.586;12.286;2023-12-22T06:02:36;97661.41;;;9.21
34807;BMP280;18310;55.586;12.286;2023-12-22T06:05:39;97653.97;;;9.25
34807;BMP280;18310;55.586;12.286;2023-12-22T06:08:43;97644.69;;;9.22
34807;BMP280;18310;55.586;12.286;2023-12-22T06:11:47;97648.91;;;9.27
34807;BMP280;18310;55.586;12.286;2023-12-22T06:14:50;97648.44;;;9.32
34807;BMP280;18310;55.586;12.286;2023-12-22T06:17:55;97670.53;;;9.30
34807;BMP280;18310;55.586;12.286;2023-12-22T06:20:58;97682.09;;;9.34
34807;BMP280;18310;55.586;12.286;2023-12-22T06:24:01;97671.59;;;9.36
34807;BMP280;18310;55.586;12.286;2023-12-22T06:27:05;97677.38;;;9.38
34807;BMP280;18310;55.586;12.286;2023-12-22T06:30:09;97695.16;;;9.43
34807;BMP280;18310;55.586;12.286;2023-12-22T06:33:14;97681.75;;;9.32
34807;BMP280;18310;55.586;12.286;2023-12-22T06:36:38;97697.59;;;9.34
34807;BMP280;18310;55.586;12.286;2023-12-22T06:39:41;97700.31;;;9.34
34807;BMP280;18310;55.586;12.286;2023-12-22T06:42:44;97720.97;;;9.28
34807;BMP280;18310;55.586;12.286;2023-12-22T06:45:48;97690.69;;;9.29
34807;BMP280;18310;55.586;12.286;2023-12-22T06:48:52;97681.03;;;9.28
34807;BMP280;18310;55.586;12.286;2023-12-22T06:51:57;97712.00;;;9.31
34807;BMP280;18310;55.586;12.286;2023-12-22T06:55:00;97735.19;;;9.35
34807;BMP280;18310;55.586;12.286;2023-12-22T06:58:05;97753.00;;;9.36
34807;BMP280;18310;55.586;12.286;2023-12-22T07:01:08;97760.44;;;9.32
34807;BMP280;18310;55.586;12.286;2023-12-22T07:04:12;97767.75;;;9.35
34807;BMP280;18310;55.586;12.286;2023-12-22T07:07:16;97766.81;;;9.45
34807;BMP280;18310;55.586;12.286;2023-12-22T07:10:20;97779.25;;;9.43
34807;BMP280;18310;55.586;12.286;2023-12-22T07:13:24;97798.28;;;9.39
34807;BMP280;18310;55.586;12.286;2023-12-22T07:16:27;97817.16;;;9.46
34807;BMP280;18310;55.586;12.286;2023-12-22T07:19:53;97836.00;;;9.57
34807;BMP280;18310;55.586;12.286;2023-12-22T07:23:00;97849.31;;;9.48
34807;BMP280;18310;55.586;12.286;2023-12-22T07:26:03;97852.03;;;9.48
34807;BMP280;18310;55.586;12.286;2023-12-22T07:29:07;97857.97;;;9.43
34807;BMP280;18310;55.586;12.286;2023-12-22T07:32:10;97885.38;;;9.48
34807;BMP280;18310;55.586;12.286;2023-12-22T07:35:17;97870.97;;;9.55
34807;BMP280;18310;55.586;12.286;2023-12-22T07:38:20;97892.84;;;9.44
34807;BMP280;18310;55.586;12.286;2023-12-22T07:41:25;97896.34;;;9.41
34807;BMP280;18310;55.586;12.286;2023-12-22T07:44:28;97894.50;;;9.35
34807;BMP280;18310;55.586;12.286;2023-12-22T07:47:33;97907.66;;;9.36
34807;BMP280;18310;55.586;12.286;2023-12-22T07:50:39;97901.38;;;9.43
34807;BMP280;18310;55.586;12.286;2023-12-22T07:53:44;97931.63;;;9.41
34807;BMP280;18310;55.586;12.286;2023-12-22T07:56:47;97929.19;;;9.47
34807;BMP280;18310;55.586;12.286;2023-12-22T07:59:51;97923.88;;;9.40
34807;BMP280;18310;55.586;12.286;2023-12-22T08:02:54;97920.47;;;9.36
34807;BMP280;18310;55.586;12.286;2023-12-22T08:05:59;97933.84;;;9.50
34807;BMP280;18310;55.586;12.286;2023-12-22T08:09:03;97957.53;;;9.46
34807;BMP280;18310;55.586;12.286;2023-12-22T08:12:07;97950.50;;;9.48
34807;BMP280;18310;55.586;12.286;2023-12-22T08:15:10;97976.38;;;9.57
34807;BMP280;18310;55.586;12.286;2023-12-22T08:18:26;97987.56;;;9.62
34807;BMP280;18310;55.586;12.286;2023-12-22T08:21:31;97984.03;;;9.65
34807;BMP280;18310;55.586;12.286;2023-12-22T08:24:45;97985.19;;;9.68
34807;BMP280;18310;55.586;12.286;2023-12-22T08:27:50;97992.56;;;9.67
34807;BMP280;18310;55.586;12.286;2023-12-22T08:30:54;98013.06;;;9.68
34807;BMP280;18310;55.586;12.286;2023-12-22T08:33:57;98017.31;;;9.73
34807;BMP280;18310;55.586;12.286;2023-12-22T08:37:02;98010.41;;;9.65
34807;BMP280;18310;55.586;12.286;2023-12-22T08:40:07;97998.66;;;9.75
34807;BMP280;18310;55.586;12.286;2023-12-22T08:43:11;98023.41;;;9.80
34807;BMP280;18310;55.586;12.286;2023-12-22T08:46:14;98030.19;;;9.92
34807;BMP280;18310;55.586;12.286;2023-12-22T08:49:18;98022.63;;;9.80
34807;BMP280;18310;55.586;12.286;2023-12-22T08:52:23;98046.84;;;9.98
34807;BMP280;18310;55.586;12.286;2023-12-22T08:55:26;98056.31;;;9.82
34807;BMP280;18310;55.586;12.286;2023-12-22T08:58:30;98050.84;;;9.89
34807;BMP280;18310;55.586;12.286;2023-12-22T09:01:34;98055.06;;;9.90
34807;BMP280;18310;55.586;12.286;2023-12-22T09:04:37;98079.06;;;9.96
34807;BMP280;18310;55.586;12.286;2023-12-22T09:07:43;98089.56;;;9.93
34807;BMP280;18310;55.586;12.286;2023-12-22T09:10:48;98101.50;;;10.00
34807;BMP280;18310;55.586;12.286;2023-12-22T09:13:53;98089.06;;;10.02
34807;BMP280;18310;55.586;12.286;2023-12-22T09:16:56;98103.00;;;10.04
34807;BMP280;18310;55.586;12.286;2023-12-22T09:20:00;98125.13;;;10.03
34807;BMP280;18310;55.586;12.286;2023-12-22T09:23:04;98126.69;;;10.04
34807;BMP280;18310;55.586;12.286;2023-12-22T09:26:10;98132.53;;;10.02
34807;BMP280;18310;55.586;12.286;2023-12-22T09:29:34;98155.34;;;10.08
34807;BMP280;18310;55.586;12.286;2023-12-22T09:32:38;98151.13;;;10.04
34807;BMP280;18310;55.586;12.286;2023-12-22T09:35:41;98161.19;;;10.07
34807;BMP280;18310;55.586;12.286;2023-12-22T09:38:45;98155.00;;;10.06
34807;BMP280;18310;55.586;12.286;2023-12-22T09:41:49;98172.47;;;10.05
34807;BMP280;18310;55.586;12.286;2023-12-22T09:44:58;98173.50;;;10.15
34807;BMP280;18310;55.586;12.286;2023-12-22T09:48:04;98161.88;;;10.14
34807;BMP280;18310;55.586;12.286;2023-12-22T09:51:08;98170.91;;;10.04
34807;BMP280;18310;55.586;12.286;2023-12-22T09:54:13;98176.66;;;10.13
34807;BMP280;18310;55.586;12.286;2023-12-22T09:57:17;98168.59;;;10.06
34807;BMP280;18310;55.586;12.286;2023-12-22T10:00:31;98176.00;;;10.02
34807;BMP280;18310;55.586;12.286;2023-12-22T10:03:37;98173.63;;;10.04
34807;BMP280;18310;55.586;12.286;2023-12-22T10:06:41;98177.84;;;10.12
34807;BMP280;18310;55.586;12.286;2023-12-22T10:09:46;98174.84;;;10.00
34807;BMP280;18310;55.586;12.286;2023-12-22T10:12:51;98175.56;;;10.07
34807;BMP280;18310;55.586;12.286;2023-12-22T10:15:58;98201.94;;;10.07
34807;BMP280;18310;55.586;12.286;2023-12-22T10:19:31;98204.34;;;10.01
34807;BMP280;18310;55.586;12.286;2023-12-22T10:22:36;98222.19;;;10.02
34807;BMP280;18310;55.586;12.286;2023-12-22T10:25:40;98215.59;;;10.00
34807;BMP280;18310;55.586;12.286;2023-12-22T10:28:44;98209.44;;;9.96
34807;BMP280;18310;55.586;12.286;2023-12-22T10:31:49;98226.13;;;9.98
34807;BMP280;18310;55.586;12.286;2023-12-22T10:34:55;98232.75;;;9.93
34807;BMP280;18310;55.586;12.286;2023-12-22T10:38:00;98239.78;;;9.90
34807;BMP280;18310;55.586;12.286;2023-12-22T10:41:06;98248.63;;;9.98
34807;BMP280;18310;55.586;12.286;2023-12-22T10:44:10;98242.47;;;9.90
34807;BMP280;18310;55.586;12.286;2023-12-22T10:47:13;98249.88;;;9.90
34807;BMP280;18310;55.586;12.286;2023-12-22T10:50:39;98263.47;;;9.90
34807;BMP280;18310;55.586;12.286;2023-12-22T10:53:42;98258.75;;;9.94
34807;BMP280;18310;55.586;12.286;2023-12-22T10:56:46;98275.50;;;9.85
34807;BMP280;18310;55.586;12.286;2023-12-22T10:59:50;98269.69;;;9.83
34807;BMP280;18310;55.586;12.286;2023-12-22T11:03:01;98264.69;;;9.82
34807;BMP280;18310;55.586;12.286;2023-12-22T11:06:10;98256.13;;;9.83
34807;BMP280;18310;55.586;12.286;2023-12-22T11:09:16;98278.63;;;9.84
34807;BMP280;18310;55.586;12.286;2023-12-22T11:12:21;98283.28;;;9.87
34807;BMP280;18310;55.586;12.286;2023-12-22T11:15:25;98281.34;;;9.84
34807;BMP280;18310;55.586;12.286;2023-12-22T11:18:32;98281.81;;;9.79
34807;BMP280;18310;55.586;12.286;2023-12-22T11:21:39;98281.03;;;9.78
34807;BMP280;18310;55.586;12.286;2023-12-22T11:24:45;98282.88;;;9.88
34807;BMP280;18310;55.586;12.286;2023-12-22T11:27:52;98301.22;;;9.77
34807;BMP280;18310;55.586;12.286;2023-12-22T11:30:57;98303.16;;;9.77
34807;BMP280;18310;55.586;12.286;2023-12-22T11:34:02;98305.88;;;9.77
34807;BMP280;18310;55.586;12.286;2023-12-22T11:37:18;98309.66;;;9.90
34807;BMP280;18310;55.586;12.286;2023-12-22T11:40:21;98292.13;;;9.91
34807;BMP280;18310;55.586;12.286;2023-12-22T11:43:25;98300.66;;;9.93
34807;BMP280;18310;55.586;12.286;2023-12-22T11:46:29;98298.66;;;10.01
34807;BMP280;18310;55.586;12.286;2023-12-22T11:49:33;98312.22;;;10.01
34807;BMP280;18310;55.586;12.286;2023-12-22T11:52:39;98322.75;;;9.95
34807;BMP280;18310;55.586;12.286;2023-12-22T11:56:02;98316.56;;;9.95
34807;BMP280;18310;55.586;12.286;2023-12-22T11:59:06;98324.69;;;9.98
34807;BMP280;18310;55.586;12.286;2023-12-22T12:02:10;98328.50;;;10.04
34807;BMP280;18310;55.586;12.286;2023-12-22T12:05:14;98337.41;;;10.05
34807;BMP280;18310;55.586;12.286;2023-12-22T12:08:29;98329.66;;;10.03
34807;BMP280;18310;55.586;12.286;2023-12-22T12:12:08;98348.31;;;10.01
34807;BMP280;18310;55.586;12.286;2023-12-22T12:15:17;98343.25;;;10.03
34807;BMP280;18310;55.586;12.286;2023-12-22T12:18:22;98352.94;;;10.04
34807;BMP280;18310;55.586;12.286;2023-12-22T12:21:26;98354.53;;;10.02
34807;BMP280;18310;55.586;12.286;2023-12-22T12:24:31;98346.00;;;10.00
34807;BMP280;18310;55.586;12.286;2023-12-22T12:27:35;98356.50;;;9.98
34807;BMP280;18310;55.586;12.286;2023-12-22T12:30:40;98365.78;;;10.00
34807;BMP280;18310;55.586;12.286;2023-12-22T12:33:45;98363.88;;;9.97
34807;BMP280;18310;55.586;12.286;2023-12-22T12:36:50;98356.50;;;9.98
34807;BMP280;18310;55.586;12.286;2023-12-22T12:39:58;98359.63;;;9.92
34807;BMP280;18310;55.586;12.286;2023-12-22T12:43:03;98356.22;;;9.88
34807;BMP280;18310;55.586;12.286;2023-12-22T12:46:06;98364.41;;;9.81
34807;BMP280;18310;55.586;12.286;2023-12-22T12:49:10;98372.19;;;9.79
34807;BMP280;18310;55.586;12.286;2023-12-22T12:52:15;98371.34;;;9.82
34807;BMP280;18310;55.586;12.286;2023-12-22T12:55:22;98378.03;;;9.78
34807;BMP280;18310;55.586;12.286;2023-12-22T12:58:28;98375.69;;;9.76
34807;BMP280;18310;55.586;12.286;2023-12-22T13:01:37;98365.28;;;9.68
34807;BMP280;18310;55.586;12.286;2023-12-22T13:04:41;98391.25;;;9.72
34807;BMP280;18310;55.586;12.286;2023-12-22T13:07:45;98390.88;;;9.70
34807;BMP280;18310;55.586;12.286;2023-12-22T13:10:59;98402.84;;;9.76
34807;BMP280;18310;55.586;12.286;2023-12-22T13:14:03;98407.53;;;9.72
34807;BMP280;18310;55.586;12.286;2023-12-22T13:17:09;98410.66;;;9.71
34807;BMP280;18310;55.586;12.286;2023-12-22T13:20:13;98415.69;;;9.72
34807;BMP280;18310;55.586;12.286;2023-12-22T13:23:17;98411.44;;;9.68
34807;BMP280;18310;55.586;12.286;2023-12-22T13:26:24;98404.06;;;9.72
34807;BMP280;18310;55.586;12.286;2023-12-22T13:29:27;98415.69;;;9.72
34807;BMP280;18310;55.586;12.286;2023-12-22T13:32:34;98415.28;;;9.74
34807;BMP280;18310;55.586;12.286;2023-12-22T13:35:38;98406.00;;;9.71
34807;BMP280;18310;55.586;12.286;2023-12-22T13:38:46;98413.75;;;9.69
34807;BMP280;18310;55.586;12.286;2023-12-22T13:41:52;98417.28;;;9.66
34807;BMP280;18310;55.586;12.286;2023-12-22T13:44:55;98420.78;;;9.63
34807;BMP280;18310;55.586;12.286;2023-12-22T13:47:58;98434.69;;;9.72
34807;BMP280;18310;55.586;12.286;2023-12-22T13:51:02;98427.34;;;9.66
34807;BMP280;18310;55.586;12.286;2023-12-22T13:54:06;98452.59;;;9.63
34807;BMP280;18310;55.586;12.286;2023-12-22T13:57:20;98436.31;;;9.59
34807;BMP280;18310;55.586;12.286;2023-12-22T14:00:28;98437.09;;;9.63
34807;BMP280;18310;55.586;12.286;2023-12-22T14:03:33;98462.69;;;9.62
34807;BMP280;18310;55.586;12.286;2023-12-22T14:06:37;98461.06;;;9.68
34807;BMP280;18310;55.586;12.286;2023-12-22T14:09:40;98453.69;;;9.72
34807;BMP280;18310;55.586;12.286;2023-12-22T14:12:48;98455.66;;;9.68
34807;BMP280;18310;55.586;12.286;2023-12-22T14:15:51;98471.19;;;9.68
34807;BMP280;18310;55.586;12.286;2023-12-22T14:18:54;98474.31;;;9.63
34807;BMP280;18310;55.586;12.286;2023-12-22T14:21:58;98474.69;;;9.65
34807;BMP280;18310;55.586;12.286;2023-12-22T14:25:02;98482.44;;;9.66
34807;BMP280;18310;55.586;12.286;2023-12-22T14:28:06;98479.34;;;9.57
34807;BMP280;18310;55.586;12.286;2023-12-22T14:31:10;98491.41;;;9.56
34807;BMP280;18310;55.586;12.286;2023-12-22T14:34:14;98489.06;;;9.58
34807;BMP280;18310;55.586;12.286;2023-12-22T14:37:18;98499.91;;;9.62
34807;BMP280;18310;55.586;12.286;2023-12-22T14:40:22;98485.56;;;9.58
34807;BMP280;18310;55.586;12.286;2023-12-22T14:43:27;98495.31;;;9.55
34807;BMP280;18310;55.586;12.286;2023-12-22T14:46:30;98522.47;;;9.52
34807;BMP280;18310;55.586;12.286;2023-12-22T14:49:34;98510.47;;;9.45
34807;BMP280;18310;55.586;12.286;2023-12-22T14:52:38;98515.13;;;9.38
34807;BMP280;18310;55.586;12.286;2023-12-22T14:55:42;98513.22;;;9.35
34807;BMP280;18310;55.586;12.286;2023-12-22T14:58:47;98521.38;;;9.28
34807;BMP280;18310;55.586;12.286;2023-12-22T15:01:50;98528.38;;;9.25
34807;BMP280;18310;55.586;12.286;2023-12-22T15:04:54;98524.50;;;9.19
34807;BMP280;18310;55.586;12.286;2023-12-22T15:08:02;98542.72;;;9.12
34807;BMP280;18310;55.586;12.286;2023-12-22T15:11:05;98547.41;;;9.04
34807;BMP280;18310;55.586;12.286;2023-12-22T15:14:10;98536.16;;;9.05
34807;BMP280;18310;55.586;12.286;2023-12-22T15:17:14;98551.28;;;8.99
34807;BMP280;18310;55.586;12.286;2023-12-22T15:20:18;98554.38;;;9.01
34807;BMP280;18310;55.586;12.286;2023-12-22T15:23:22;98547.03;;;8.88
34807;BMP280;18310;55.586;12.286;2023-12-22T15:26:25;98554.41;;;8.94
34807;BMP280;18310;55.586;12.286;2023-12-22T15:29:30;98569.13;;;8.90
34807;BMP280;18310;55.586;12.286;2023-12-22T15:32:34;98578.44;;;8.85
34807;BMP280;18310;55.586;12.286;2023-12-22T15:35:38;98569.13;;;8.86
34807;BMP280;18310;55.586;12.286;2023-12-22T15:38:41;98573.78;;;8.79
34807;BMP280;18310;55.586;12.286;2023-12-22T15:41:45;98575.72;;;8.78
34807;BMP280;18310;55.586;12.286;2023-12-22T15:44:49;98578.81;;;8.73
34807;BMP280;18310;55.586;12.286;2023-12-22T15:47:53;98587.72;;;8.70
34807;BMP280;18310;55.586;12.286;2023-12-22T15:50:56;98592.34;;;8.66
34807;BMP280;18310;55.586;12.286;2023-12-22T15:54:00;98598.56;;;8.63
34807;BMP280;18310;55.586;12.286;2023-12-22T15:57:05;98605.91;;;8.62
34807;BMP280;18310;55.586;12.286;2023-12-22T16:00:11;98597.38;;;8.57
34807;BMP280;18310;55.586;12.286;2023-12-22T16:03:15;98591.97;;;8.50
34807;BMP280;18310;55.586;12.286;2023-12-22T16:06:19;98585.72;;;8.42
34807;BMP280;18310;55.586;12.286;2023-12-22T16:09:23;98598.53;;;8.38
34807;BMP280;18310;55.586;12.286;2023-12-22T16:12:34;98597.72;;;8.34
34807;BMP280;18310;55.586;12.286;2023-12-22T16:15:39;98600.81;;;8.26
34807;BMP280;18310;55.586;12.286;2023-12-22T16:18:42;98610.84;;;8.21
34807;BMP280;18310;55.586;12.286;2023-12-22T16:21:46;98609.69;;;8.15
34807;BMP280;18310;55.586;12.286;2023-12-22T16:24:54;98618.19;;;8.14
34807;BMP280;18310;55.586;12.286;2023-12-22T16:27:58;98622.03;;;8.09
34807;BMP280;18310;55.586;12.286;2023-12-22T16:31:03;98623.97;;;8.12
34807;BMP280;18310;55.586;12.286;2023-12-22T16:34:07;98629.78;;;8.11
34807;BMP280;18310;55.586;12.286;2023-12-22T16:37:10;98623.97;;;8.12
34807;BMP280;18310;55.586;12.286;2023-12-22T16:40:16;98621.66;;;8.07
34807;BMP280;18310;55.586;12.286;2023-12-22T16:43:19;98616.22;;;8.04
34807;BMP280;18310;55.586;12.286;2023-12-22T16:46:24;98627.81;;;7.97
34807;BMP280;18310;55.586;12.286;2023-12-22T16:49:27;98633.22;;;7.94
34807;BMP280;18310;55.586;12.286;2023-12-22T16:52:35;98628.19;;;7.96
34807;BMP280;18310;55.586;12.286;2023-12-22T16:55:38;98627.75;;;7.90
34807;BMP280;18310;55.586;12.286;2023-12-22T16:58:42;98632.38;;;7.86
34807;BMP280;18310;55.586;12.286;2023-12-22T17:02:19;98638.97;;;7.85
34807;BMP280;18310;55.586;12.286;2023-12-22T17:05:34;98648.63;;;7.86
34807;BMP280;18310;55.586;12.286;2023-12-22T17:08:39;98642.44;;;7.82
34807;BMP280;18310;55.586;12.286;2023-12-22T17:14:34;98641.63;;;7.78
34807;BMP280;18310;55.586;12.286;2023-12-22T17:17:38;98645.16;;;7.82
34807;BMP280;18310;55.586;12.286;2023-12-22T17:20:42;98654.78;;;7.79
34807;BMP280;18310;55.586;12.286;2023-12-22T17:23:50;98653.22;;;7.78
34807;BMP280;18310;55.586;12.286;2023-12-22T17:26:53;98654.41;;;7.81
34807;BMP280;18310;55.586;12.286;2023-12-22T17:29:58;98661.34;;;7.78
34807;BMP280;18310;55.586;12.286;2023-12-22T17:33:02;98665.25;;;7.81
34807;BMP280;18310;55.586;12.286;2023-12-22T17:36:09;98656.72;;;7.79
34807;BMP280;18310;55.586;12.286;2023-12-22T17:39:13;98649.75;;;7.78
34807;BMP280;18310;55.586;12.286;2023-12-22T17:42:41;98655.56;;;7.80
34807;BMP280;18310;55.586;12.286;2023-12-22T17:45:44;98670.25;;;7.75
34807;BMP280;18310;55.586;12.286;2023-12-22T17:48:47;98664.44;;;7.77